Time;durP1;ratioP1;P1;durP2;ratioP2;P2;SDS_P1;SDS_P2;PMS_P1;PMS_P2;Temp;Humidity;BMP_temperature;BMP_pressure;BME280_temperature;BME280_humidity;BME280_pressure;Samples;Min_cycle;Max_cycle;Signal;HPM_P1;HPM_P2
2023/03/17 00:01:17;;;;;;;11.05;4.80;;;;;;;;;;5083003;28;20032;-75
2023/03/17 00:03:45;;;;;;;10.95;4.32;;;;;;;;;;5082379;28;20064;-76
2023/03/17 00:06:26;;;;;;;13.93;4.55;;;;;;;;;;5082255;28;20085;-77
2023/03/17 00:08:52;;;;;;;7.88;4.85;;;;;;;;;;5085562;28;20302;-77
2023/03/17 00:11:19;;;;;;;9.02;4.78;;;;;;;;;;5082834;28;20028;-76
2023/03/17 00:13:46;;;;;;;8.50;3.83;;;;;;;;;;5067058;28;20028;-77
2023/03/17 00:16:15;;;;;;;6.88;4.20;;;;;;;;;;5083558;28;20032;-77
2023/03/17 00:18:42;;;;;;;6.22;3.65;;;;;;;;;;5077500;28;20109;-76
2023/03/17 00:21:21;;;;;;;5.85;4.45;;;;;;;;;;5077908;28;20427;-77
2023/03/17 00:23:49;;;;;;;7.50;3.67;;;;;;;;;;5058754;28;20028;-77
2023/03/17 00:26:15;;;;;;;8.60;4.03;;;;;;;;;;5084923;28;20076;-77
2023/03/17 00:28:41;;;;;;;4.50;3.30;;;;;;;;;;5086350;28;20031;-76
2023/03/17 00:31:12;;;;;;;4.72;3.35;;;;;;;;;;5084403;28;20387;-77
2023/03/17 00:33:38;;;;;;;5.40;3.58;;;;;;;;;;5085056;28;20034;-76
2023/03/17 00:36:06;;;;;;;6.80;3.47;;;;;;;;;;5088195;28;20032;-75
2023/03/17 00:38:32;;;;;;;5.45;3.28;;;;;;;;;;5081342;28;20028;-75
2023/03/17 00:40:59;;;;;;;7.32;3.20;;;;;;;;;;5087468;28;20048;-75
2023/03/17 00:43:25;;;;;;;6.38;3.28;;;;;;;;;;5084103;28;20048;-78
2023/03/17 00:45:51;;;;;;;8.35;3.67;;;;;;;;;;5085417;28;20028;-76
2023/03/17 00:48:19;;;;;;;4.38;3.15;;;;;;;;;;5083239;28;20488;-76
2023/03/17 00:50:46;;;;;;;6.32;2.85;;;;;;;;;;5084054;28;20030;-76
2023/03/17 00:53:14;;;;;;;6.03;3.63;;;;;;;;;;5085915;28;20103;-76
2023/03/17 00:55:41;;;;;;;6.50;3.30;;;;;;;;;;5079149;28;20031;-76
2023/03/17 00:58:17;;;;;;;6.35;3.30;;;;;;;;;;5084485;28;20472;-77
2023/03/17 01:00:44;;;;;;;5.72;3.08;;;;;;;;;;5082730;28;20323;-77
2023/03/17 01:03:11;;;;;;;5.50;3.13;;;;;;;;;;5086413;28;20400;-77
2023/03/17 01:05:37;;;;;;;5.07;3.08;;;;;;;;;;5085216;28;20032;-77
2023/03/17 01:08:03;;;;;;;6.00;3.03;;;;;;;;;;5084056;28;20111;-78
2023/03/17 01:10:30;;;;;;;10.30;3.17;;;;;;;;;;5080305;28;20135;-76
2023/03/17 01:12:57;;;;;;;4.43;2.75;;;;;;;;;;5081771;28;20024;-76
2023/03/17 01:15:25;;;;;;;3.05;2.63;;;;;;;;;;5085312;28;20399;-75
2023/03/17 01:17:51;;;;;;;6.38;3.15;;;;;;;;;;5083469;28;20498;-76
2023/03/17 01:20:20;;;;;;;7.82;3.35;;;;;;;;;;5082197;28;20097;-76
2023/03/17 01:22:46;;;;;;;5.43;2.85;;;;;;;;;;5085049;28;20034;-76
2023/03/17 01:25:12;;;;;;;6.50;2.83;;;;;;;;;;5082671;28;20505;-75
2023/03/17 01:27:40;;;;;;;6.60;3.28;;;;;;;;;;5079804;28;20028;-76
2023/03/17 01:30:08;;;;;;;3.45;2.80;;;;;;;;;;5083344;28;20056;-77
2023/03/17 01:32:34;;;;;;;4.10;3.20;;;;;;;;;;5086054;28;20039;-74
2023/03/17 01:35:00;;;;;;;4.18;2.70;;;;;;;;;;5081689;28;20032;-75
2023/03/17 01:37:26;;;;;;;4.60;3.10;;;;;;;;;;5065472;28;20202;-75
2023/03/17 01:39:52;;;;;;;3.47;2.67;;;;;;;;;;5082368;28;20036;-75
2023/03/17 01:42:19;;;;;;;3.28;2.58;;;;;;;;;;5063565;28;20032;-75
2023/03/17 01:44:59;;;;;;;4.78;2.63;;;;;;;;;;5083798;28;20031;-75
2023/03/17 01:47:27;;;;;;;4.60;2.75;;;;;;;;;;5083938;28;20028;-75
2023/03/17 01:49:53;;;;;;;5.68;2.92;;;;;;;;;;5083693;28;20028;-75
2023/03/17 01:52:21;;;;;;;9.18;3.58;;;;;;;;;;5081274;28;20062;-75
2023/03/17 01:54:50;;;;;;;6.72;3.00;;;;;;;;;;5081543;28;20025;-75
2023/03/17 01:57:18;;;;;;;7.30;3.35;;;;;;;;;;5084151;28;20085;-75
2023/03/17 01:59:50;;;;;;;4.72;2.90;;;;;;;;;;5079806;28;20677;-76
2023/03/17 02:02:24;;;;;;;4.22;2.60;;;;;;;;;;5065407;28;20024;-75
2023/03/17 02:04:51;;;;;;;3.72;2.70;;;;;;;;;;5080906;28;20032;-76
2023/03/17 02:07:19;;;;;;;5.57;3.08;;;;;;;;;;5081795;28;20039;-77
2023/03/17 02:09:45;;;;;;;8.25;3.05;;;;;;;;;;5084949;28;20043;-76
2023/03/17 02:12:12;;;;;;;7.05;3.20;;;;;;;;;;5081453;28;20035;-75
2023/03/17 02:14:38;;;;;;;4.13;2.88;;;;;;;;;;5079159;28;20070;-75
2023/03/17 02:17:05;;;;;;;5.38;2.47;;;;;;;;;;5057987;28;20430;-75
2023/03/17 02:19:31;;;;;;;4.35;2.65;;;;;;;;;;5063174;28;20045;-75
2023/03/17 02:21:58;;;;;;;4.35;2.90;;;;;;;;;;5063594;28;20033;-75
2023/03/17 02:24:29;;;;;;;4.93;2.60;;;;;;;;;;5060820;28;20935;-76
2023/03/17 02:26:57;;;;;;;4.43;2.70;;;;;;;;;;5059872;28;20033;-75
2023/03/17 02:29:23;;;;;;;4.75;3.10;;;;;;;;;;5064443;28;20081;-74
2023/03/17 02:31:50;;;;;;;6.63;2.70;;;;;;;;;;5062290;28;20029;-75
2023/03/17 02:34:16;;;;;;;6.50;3.35;;;;;;;;;;5055713;28;20021;-74
2023/03/17 02:36:43;;;;;;;3.33;2.95;;;;;;;;;;5056091;28;20024;-74
2023/03/17 02:39:09;;;;;;;5.28;3.10;;;;;;;;;;5063455;28;20033;-75
2023/03/17 02:41:36;;;;;;;5.03;3.03;;;;;;;;;;5057962;28;20545;-74
2023/03/17 02:44:02;;;;;;;4.68;2.97;;;;;;;;;;5066329;28;20029;-75
2023/03/17 02:46:28;;;;;;;5.78;3.10;;;;;;;;;;5063042;28;20477;-75
2023/03/17 02:48:54;;;;;;;5.00;2.80;;;;;;;;;;5064157;28;20025;-74
2023/03/17 02:51:20;;;;;;;4.90;2.95;;;;;;;;;;5059041;28;20028;-74
2023/03/17 02:53:46;;;;;;;8.05;2.78;;;;;;;;;;5061226;28;20049;-75
2023/03/17 02:56:12;;;;;;;5.82;4.10;;;;;;;;;;5059350;28;20025;-75
2023/03/17 02:58:38;;;;;;;4.03;2.42;;;;;;;;;;5067826;28;20028;-74
2023/03/17 03:01:04;;;;;;;4.43;3.13;;;;;;;;;;5065026;28;20045;-75
2023/03/17 03:03:30;;;;;;;5.70;3.15;;;;;;;;;;5066475;28;20476;-74
2023/03/17 03:05:57;;;;;;;6.05;2.83;;;;;;;;;;5060926;28;20111;-76
2023/03/17 03:08:23;;;;;;;6.35;3.03;;;;;;;;;;5065329;28;20083;-75
2023/03/17 03:10:51;;;;;;;5.25;3.08;;;;;;;;;;5064096;28;20040;-75
2023/03/17 03:13:17;;;;;;;8.43;3.05;;;;;;;;;;5065611;28;20032;-74
2023/03/17 03:15:43;;;;;;;5.07;2.80;;;;;;;;;;5066347;28;20138;-74
2023/03/17 03:18:09;;;;;;;6.32;3.15;;;;;;;;;;5062001;28;20489;-75
2023/03/17 03:20:35;;;;;;;7.60;2.90;;;;;;;;;;5081208;28;20062;-74
2023/03/17 03:23:01;;;;;;;4.10;2.70;;;;;;;;;;5085881;28;20028;-76
2023/03/17 03:25:27;;;;;;;6.57;2.72;;;;;;;;;;5085707;28;20039;-74
2023/03/17 03:27:54;;;;;;;4.10;2.60;;;;;;;;;;5085388;28;20032;-75
2023/03/17 03:30:19;;;;;;;3.90;2.70;;;;;;;;;;5085081;28;20064;-74
2023/03/17 03:32:46;;;;;;;3.65;2.70;;;;;;;;;;5087375;28;20128;-74
2023/03/17 03:35:12;;;;;;;6.20;2.95;;;;;;;;;;5085507;28;20025;-74
2023/03/17 03:37:38;;;;;;;6.80;3.15;;;;;;;;;;5086617;28;20107;-74
2023/03/17 03:40:06;;;;;;;8.52;3.00;;;;;;;;;;5084902;28;20111;-75
2023/03/17 03:42:32;;;;;;;4.70;2.78;;;;;;;;;;5067254;28;20038;-73
2023/03/17 03:44:58;;;;;;;3.60;2.47;;;;;;;;;;5086387;28;20122;-74
2023/03/17 03:47:24;;;;;;;3.97;2.90;;;;;;;;;;5088255;28;20174;-74
2023/03/17 03:49:50;;;;;;;6.35;2.97;;;;;;;;;;5082020;28;20035;-77
2023/03/17 03:52:16;;;;;;;5.78;3.03;;;;;;;;;;5084496;28;20028;-75
2023/03/17 03:54:42;;;;;;;5.65;2.67;;;;;;;;;;5084549;28;20051;-74
2023/03/17 03:57:08;;;;;;;4.68;2.72;;;;;;;;;;5083915;28;20392;-75
2023/03/17 03:59:34;;;;;;;5.15;2.95;;;;;;;;;;5066447;28;20036;-74
2023/03/17 04:02:02;;;;;;;4.97;2.75;;;;;;;;;;5067690;28;20048;-75
2023/03/17 04:04:28;;;;;;;16.30;4.78;;;;;;;;;;5086583;28;20456;-75
2023/03/17 04:06:54;;;;;;;7.45;2.83;;;;;;;;;;5081963;28;20024;-76
2023/03/17 04:09:21;;;;;;;5.03;3.08;;;;;;;;;;5083416;28;20031;-76
2023/03/17 04:11:47;;;;;;;5.60;3.20;;;;;;;;;;5081213;28;20044;-77
2023/03/17 04:14:13;;;;;;;7.50;3.03;;;;;;;;;;5087369;28;20032;-76
2023/03/17 04:16:39;;;;;;;4.32;2.80;;;;;;;;;;5083343;28;20536;-74
2023/03/17 04:19:06;;;;;;;5.97;3.30;;;;;;;;;;5087166;28;20524;-76
2023/03/17 04:21:32;;;;;;;5.95;3.38;;;;;;;;;;5082829;28;20032;-74
2023/03/17 04:23:58;;;;;;;4.07;2.58;;;;;;;;;;5082150;28;20065;-75
2023/03/17 04:26:24;;;;;;;7.40;3.55;;;;;;;;;;5085586;28;20035;-74
2023/03/17 04:28:50;;;;;;;6.65;3.30;;;;;;;;;;5084488;28;20032;-75
2023/03/17 04:31:16;;;;;;;5.90;3.20;;;;;;;;;;5083846;28;20058;-75
2023/03/17 04:33:42;;;;;;;6.75;3.17;;;;;;;;;;5066556;28;20073;-75
2023/03/17 04:36:13;;;;;;;5.85;2.92;;;;;;;;;;5082762;28;20039;-75
2023/03/17 04:38:39;;;;;;;6.75;3.80;;;;;;;;;;5083138;28;20032;-74
2023/03/17 04:41:05;;;;;;;5.15;2.80;;;;;;;;;;5085973;28;20034;-76
2023/03/17 04:43:31;;;;;;;6.13;2.83;;;;;;;;;;5081442;28;20055;-75
2023/03/17 04:45:57;;;;;;;4.32;2.90;;;;;;;;;;5092075;28;20033;-74
2023/03/17 04:48:23;;;;;;;7.28;3.17;;;;;;;;;;5085928;28;20047;-74
2023/03/17 04:50:50;;;;;;;6.35;3.00;;;;;;;;;;5082943;28;20031;-74
2023/03/17 04:53:16;;;;;;;6.85;3.00;;;;;;;;;;5057196;28;20082;-74
2023/03/17 04:55:42;;;;;;;7.18;2.92;;;;;;;;;;5066324;28;20111;-76
2023/03/17 04:58:08;;;;;;;5.22;2.92;;;;;;;;;;5082545;28;20115;-74
2023/03/17 05:00:37;;;;;;;7.10;2.70;;;;;;;;;;5049988;28;20445;-74
2023/03/17 05:03:05;;;;;;;6.45;3.15;;;;;;;;;;5083543;28;20063;-74
2023/03/17 05:05:31;;;;;;;5.22;3.10;;;;;;;;;;5084726;28;20032;-75
2023/03/17 05:07:57;;;;;;;5.15;2.83;;;;;;;;;;5080671;28;20043;-76
2023/03/17 05:10:23;;;;;;;4.78;2.63;;;;;;;;;;5085262;28;20476;-74
2023/03/17 05:12:49;;;;;;;6.15;2.70;;;;;;;;;;5079106;28;20040;-73
2023/03/17 05:15:15;;;;;;;6.68;3.22;;;;;;;;;;5085481;28;20650;-75
2023/03/17 05:17:41;;;;;;;5.95;2.88;;;;;;;;;;5074161;28;20084;-73
2023/03/17 05:20:08;;;;;;;5.25;3.17;;;;;;;;;;5069749;28;20087;-76
2023/03/17 05:22:35;;;;;;;2.72;2.20;;;;;;;;;;5074087;28;20028;-73
2023/03/17 05:25:01;;;;;;;2.80;2.33;;;;;;;;;;5074944;28;20093;-74
2023/03/17 05:27:27;;;;;;;6.97;3.10;;;;;;;;;;5056867;28;20078;-74
2023/03/17 05:29:57;;;;;;;83.32;42.53;;;;;;;;;;5069964;28;20244;-75
2023/03/17 05:32:23;;;;;;;7.15;4.90;;;;;;;;;;5077212;28;20036;-74
2023/03/17 05:34:50;;;;;;;7.57;4.80;;;;;;;;;;5084040;28;20031;-75
2023/03/17 05:37:17;;;;;;;5.57;2.78;;;;;;;;;;5079963;28;20087;-76
2023/03/17 05:39:43;;;;;;;4.32;2.65;;;;;;;;;;5053113;28;20036;-73
2023/03/17 05:42:09;;;;;;;5.22;2.85;;;;;;;;;;5079954;28;20046;-74
2023/03/17 05:44:35;;;;;;;9.35;3.25;;;;;;;;;;5075662;28;20032;-72
2023/03/17 05:47:01;;;;;;;5.88;2.63;;;;;;;;;;5074972;28;20045;-74
2023/03/17 05:49:28;;;;;;;7.30;2.75;;;;;;;;;;5082005;28;20047;-74
2023/03/17 05:51:55;;;;;;;5.18;2.67;;;;;;;;;;5080035;28;20427;-74
2023/03/17 05:54:22;;;;;;;5.72;2.78;;;;;;;;;;5074216;28;20028;-78
2023/03/17 05:56:49;;;;;;;3.53;2.50;;;;;;;;;;5055179;28;20087;-75
2023/03/17 05:59:17;;;;;;;3.47;2.70;;;;;;;;;;5071354;28;20028;-73
2023/03/17 06:01:43;;;;;;;3.92;2.42;;;;;;;;;;5078933;28;20036;-75
2023/03/17 06:04:09;;;;;;;4.18;2.58;;;;;;;;;;5075036;28;20028;-75
2023/03/17 06:06:35;;;;;;;4.20;2.50;;;;;;;;;;5073802;28;20055;-76
2023/03/17 06:09:02;;;;;;;5.57;2.63;;;;;;;;;;5076485;28;20032;-75
2023/03/17 06:11:28;;;;;;;4.03;2.67;;;;;;;;;;5079827;28;20040;-76
2023/03/17 06:13:54;;;;;;;5.05;2.50;;;;;;;;;;5060110;28;20028;-75
2023/03/17 06:16:21;;;;;;;8.48;3.25;;;;;;;;;;5076891;28;20082;-76
2023/03/17 06:18:47;;;;;;;5.65;3.20;;;;;;;;;;5072706;28;20020;-71
2023/03/17 06:21:13;;;;;;;4.00;2.33;;;;;;;;;;5074131;28;20365;-74
2023/03/17 06:23:39;;;;;;;3.97;2.50;;;;;;;;;;5078200;28;20056;-73
2023/03/17 06:26:06;;;;;;;5.43;2.55;;;;;;;;;;5078034;28;20176;-74
2023/03/17 06:28:32;;;;;;;8.50;4.63;;;;;;;;;;5062206;28;20827;-76
2023/03/17 06:30:58;;;;;;;3.83;2.42;;;;;;;;;;5079954;28;20036;-75
2023/03/17 06:33:24;;;;;;;4.15;2.67;;;;;;;;;;5083451;28;20059;-74
2023/03/17 06:35:52;;;;;;;3.95;2.85;;;;;;;;;;5075025;28;20158;-74
2023/03/17 06:38:19;;;;;;;5.60;2.20;;;;;;;;;;5080820;28;20048;-74
2023/03/17 06:40:45;;;;;;;5.40;2.65;;;;;;;;;;5081717;28;20047;-75
2023/03/17 06:43:12;;;;;;;4.07;2.47;;;;;;;;;;5084258;28;20032;-74
2023/03/17 06:45:38;;;;;;;5.05;2.17;;;;;;;;;;5065352;28;20063;-75
2023/03/17 06:48:05;;;;;;;3.90;2.50;;;;;;;;;;5078937;28;20123;-76
2023/03/17 06:50:32;;;;;;;5.82;2.38;;;;;;;;;;5082652;28;20036;-73
2023/03/17 06:52:58;;;;;;;4.82;2.50;;;;;;;;;;5081627;28;20038;-75
2023/03/17 06:55:24;;;;;;;3.45;2.20;;;;;;;;;;5076240;28;20068;-75
2023/03/17 06:57:50;;;;;;;4.70;3.15;;;;;;;;;;5080452;28;20071;-74
2023/03/17 07:00:16;;;;;;;8.18;2.92;;;;;;;;;;5081272;28;20793;-75
2023/03/17 07:02:42;;;;;;;4.43;2.50;;;;;;;;;;5075890;28;20086;-75
2023/03/17 07:05:08;;;;;;;6.18;2.35;;;;;;;;;;5064452;28;20028;-76
2023/03/17 07:07:34;;;;;;;3.80;2.58;;;;;;;;;;5080596;28;20028;-75
2023/03/17 07:10:00;;;;;;;5.88;3.17;;;;;;;;;;5078043;28;20032;-76
2023/03/17 07:12:27;;;;;;;4.38;2.63;;;;;;;;;;5077849;28;20036;-77
2023/03/17 07:14:54;;;;;;;5.20;2.92;;;;;;;;;;5075522;28;20414;-76
2023/03/17 07:17:20;;;;;;;3.25;2.20;;;;;;;;;;5084590;28;20519;-79
2023/03/17 07:19:46;;;;;;;4.55;2.70;;;;;;;;;;5071808;28;20044;-75
2023/03/17 07:22:12;;;;;;;6.57;4.10;;;;;;;;;;5085696;28;20060;-75
2023/03/17 07:24:38;;;;;;;3.50;2.35;;;;;;;;;;5082027;28;20036;-75
2023/03/17 07:27:04;;;;;;;6.75;2.60;;;;;;;;;;5073507;28;20028;-79
2023/03/17 07:29:32;;;;;;;3.63;2.28;;;;;;;;;;5067713;28;20196;-75
2023/03/17 07:31:58;;;;;;;5.03;2.70;;;;;;;;;;5073675;28;20163;-76
2023/03/17 07:34:24;;;;;;;4.65;2.63;;;;;;;;;;5078454;28;20481;-76
2023/03/17 07:36:51;;;;;;;6.05;2.38;;;;;;;;;;5079142;28;20039;-76
2023/03/17 07:39:17;;;;;;;7.35;3.13;;;;;;;;;;5079831;28;20024;-78
2023/03/17 07:41:43;;;;;;;4.63;2.10;;;;;;;;;;5062046;28;20054;-79
2023/03/17 07:44:10;;;;;;;5.82;2.70;;;;;;;;;;5078379;28;20558;-78
2023/03/17 07:46:37;;;;;;;3.33;2.22;;;;;;;;;;5079900;28;20036;-79
2023/03/17 07:49:03;;;;;;;3.60;2.40;;;;;;;;;;5081724;28;20143;-78
2023/03/17 07:51:30;;;;;;;3.33;2.40;;;;;;;;;;5084062;28;20038;-77
2023/03/17 07:54:02;;;;;;;4.47;2.67;;;;;;;;;;5078319;28;20058;-76
2023/03/17 07:56:28;;;;;;;4.60;2.30;;;;;;;;;;5080039;28;20099;-77
2023/03/17 07:58:56;;;;;;;6.13;2.65;;;;;;;;;;5082088;28;20042;-77
2023/03/17 08:01:23;;;;;;;27.08;14.82;;;;;;;;;;5071583;28;20032;-77
2023/03/17 08:03:49;;;;;;;15.35;8.27;;;;;;;;;;5077563;28;20036;-79
2023/03/17 08:06:15;;;;;;;7.75;2.80;;;;;;;;;;5084176;28;20068;-78
2023/03/17 08:08:41;;;;;;;4.00;2.17;;;;;;;;;;5080200;28;20032;-82
2023/03/17 08:11:07;;;;;;;7.32;2.92;;;;;;;;;;5080033;28;20113;-80
2023/03/17 08:13:34;;;;;;;3.63;2.42;;;;;;;;;;5090444;28;20060;-78
2023/03/17 08:16:00;;;;;;;5.00;2.58;;;;;;;;;;5080090;28;20020;-80
2023/03/17 08:18:27;;;;;;;5.32;3.20;;;;;;;;;;5077598;28;20103;-77
2023/03/17 08:20:53;;;;;;;3.60;2.67;;;;;;;;;;5081394;28;20070;-80
2023/03/17 08:23:20;;;;;;;5.50;3.03;;;;;;;;;;5069354;28;20055;-78
2023/03/17 08:25:46;;;;;;;4.68;2.55;;;;;;;;;;5076679;28;20024;-78
2023/03/17 08:28:14;;;;;;;7.78;2.78;;;;;;;;;;5076886;28;20136;-78
2023/03/17 08:30:41;;;;;;;5.68;2.80;;;;;;;;;;5079111;28;20032;-76
2023/03/17 08:33:07;;;;;;;6.28;2.72;;;;;;;;;;5078361;28;20085;-77
2023/03/17 08:35:34;;;;;;;7.20;2.47;;;;;;;;;;5081170;28;20031;-77
2023/03/17 08:38:00;;;;;;;3.75;2.05;;;;;;;;;;5084510;28;20164;-79
2023/03/17 08:40:26;;;;;;;3.50;2.58;;;;;;;;;;5076666;28;20044;-79
2023/03/17 08:42:52;;;;;;;4.30;2.35;;;;;;;;;;5058151;28;20385;-78
2023/03/17 08:45:18;;;;;;;5.43;3.03;;;;;;;;;;5076489;28;20067;-79
2023/03/17 08:47:45;;;;;;;7.90;2.60;;;;;;;;;;5085447;28;20036;-79
2023/03/17 08:50:15;;;;;;;10.00;6.75;;;;;;;;;;5070107;28;20127;-70
2023/03/17 08:52:41;;;;;;;5.35;2.72;;;;;;;;;;5082224;28;20476;-79
2023/03/17 08:55:08;;;;;;;5.25;2.85;;;;;;;;;;5083568;28;20040;-80
2023/03/17 08:57:34;;;;;;;4.60;2.83;;;;;;;;;;5088782;28;20016;-79
2023/03/17 09:00:01;;;;;;;4.32;2.50;;;;;;;;;;5088983;28;20317;-79
2023/03/17 09:02:27;;;;;;;6.00;2.95;;;;;;;;;;5087257;28;20037;-78
2023/03/17 09:04:54;;;;;;;8.15;3.00;;;;;;;;;;5087706;28;20028;-79
2023/03/17 09:07:20;;;;;;;8.25;3.22;;;;;;;;;;5087968;28;20023;-80
2023/03/17 09:09:46;;;;;;;7.82;3.72;;;;;;;;;;5078865;28;20120;-80
2023/03/17 09:12:13;;;;;;;7.20;3.33;;;;;;;;;;5086229;28;20017;-80
2023/03/17 09:14:40;;;;;;;6.65;3.22;;;;;;;;;;5096326;28;20472;-80
2023/03/17 09:17:07;;;;;;;5.35;3.15;;;;;;;;;;5091153;28;20158;-81
2023/03/17 09:19:33;;;;;;;6.65;3.30;;;;;;;;;;5077301;28;20051;-78
2023/03/17 09:22:01;;;;;;;6.45;2.92;;;;;;;;;;5089430;28;20064;-80
2023/03/17 09:24:28;;;;;;;3.47;2.70;;;;;;;;;;5085672;28;20105;-79
2023/03/17 09:26:54;;;;;;;3.33;2.75;;;;;;;;;;5085007;28;20495;-79
2023/03/17 09:29:20;;;;;;;10.55;3.25;;;;;;;;;;5084929;28;20035;-79
2023/03/17 09:31:46;;;;;;;8.45;3.13;;;;;;;;;;5085015;28;20036;-79
2023/03/17 09:34:12;;;;;;;6.47;3.05;;;;;;;;;;5083937;28;20027;-79
2023/03/17 09:36:38;;;;;;;5.70;2.88;;;;;;;;;;5086099;28;20512;-79
2023/03/17 09:39:04;;;;;;;6.80;3.50;;;;;;;;;;5077492;28;20032;-81
2023/03/17 09:41:34;;;;;;;7.60;3.70;;;;;;;;;;5089118;28;20499;-80
2023/03/17 09:44:18;;;;;;;5.45;3.30;;;;;;;;;;5082312;28;20130;-80
2023/03/17 09:46:53;;;;;;;5.97;3.35;;;;;;;;;;5083021;28;20039;-80
2023/03/17 09:49:24;;;;;;;5.32;3.28;;;;;;;;;;5082691;28;20028;-80
2023/03/17 09:51:50;;;;;;;7.35;3.40;;;;;;;;;;5091202;28;20043;-80
2023/03/17 09:54:17;;;;;;;9.23;3.05;;;;;;;;;;5087846;28;20088;-80
2023/03/17 09:56:45;;;;;;;7.30;3.20;;;;;;;;;;5072006;28;20647;-80
2023/03/17 09:59:31;;;;;;;7.43;3.65;;;;;;;;;;5085239;28;20025;-81
2023/03/17 10:01:58;;;;;;;6.35;3.50;;;;;;;;;;5082445;28;20516;-81
2023/03/17 10:04:24;;;;;;;8.23;3.20;;;;;;;;;;5088491;28;20572;-81
2023/03/17 10:06:50;;;;;;;6.10;3.35;;;;;;;;;;5094085;28;20092;-82
2023/03/17 10:09:21;;;;;;;7.90;3.53;;;;;;;;;;5093895;28;20077;-82
2023/03/17 10:11:50;;;;;;;9.05;3.63;;;;;;;;;;5094787;28;20032;-81
2023/03/17 10:14:37;;;;;;;4.65;3.08;;;;;;;;;;5081641;28;20028;-80
2023/03/17 10:17:09;;;;;;;7.15;3.88;;;;;;;;;;5089145;28;20044;-81
2023/03/17 10:19:40;;;;;;;7.63;3.60;;;;;;;;;;5082600;28;20046;-80
2023/03/17 10:22:14;;;;;;;6.78;3.35;;;;;;;;;;5091462;28;20035;-81
2023/03/17 10:24:45;;;;;;;7.55;3.60;;;;;;;;;;5088963;28;20330;-80
2023/03/17 10:27:14;;;;;;;7.40;3.42;;;;;;;;;;5084359;28;20456;-81
2023/03/17 10:29:41;;;;;;;6.20;3.88;;;;;;;;;;5086734;28;20040;-80
2023/03/17 10:32:09;;;;;;;10.73;3.90;;;;;;;;;;5088447;28;20469;-81
2023/03/17 10:34:36;;;;;;;6.22;3.63;;;;;;;;;;5090626;28;20126;-81
2023/03/17 10:37:13;;;;;;;4.97;3.90;;;;;;;;;;5089091;28;20362;-78
2023/03/17 10:39:50;;;;;;;8.43;4.65;;;;;;;;;;5075485;28;20181;-72
2023/03/17 10:42:23;;;;;;;4.88;3.45;;;;;;;;;;5088805;28;20396;-79
2023/03/17 10:45:23;;;;;;;5.38;3.40;;;;;;;;;;5074719;28;20089;-77
2023/03/17 10:47:50;;;;;;;6.30;3.88;;;;;;;;;;5030604;28;20040;-76
2023/03/17 10:50:22;;;;;;;5.70;3.75;;;;;;;;;;5070142;28;20032;-75
2023/03/17 10:52:56;;;;;;;6.88;3.55;;;;;;;;;;5082238;28;20111;-76
2023/03/17 10:55:26;;;;;;;6.75;3.30;;;;;;;;;;5087755;28;20162;-76
2023/03/17 10:58:00;;;;;;;6.70;2.97;;;;;;;;;;5078524;28;20441;-77
2023/03/17 11:00:28;;;;;;;6.32;3.40;;;;;;;;;;5087517;28;20025;-80
2023/03/17 11:02:58;;;;;;;4.13;2.92;;;;;;;;;;5078875;28;20078;-79
2023/03/17 11:05:28;;;;;;;6.90;3.13;;;;;;;;;;5067812;28;20111;-78
2023/03/17 11:07:57;;;;;;;4.95;3.35;;;;;;;;;;5091443;28;20023;-80
2023/03/17 11:10:25;;;;;;;6.68;3.05;;;;;;;;;;5091295;28;20043;-81
2023/03/17 11:13:01;;;;;;;5.60;3.83;;;;;;;;;;5085964;28;20024;-76
2023/03/17 11:15:42;;;;;;;5.47;3.20;;;;;;;;;;5072406;28;20040;-79
2023/03/17 11:18:28;;;;;;;8.38;3.38;;;;;;;;;;5081401;28;20031;-79
2023/03/17 11:20:54;;;;;;;8.77;3.35;;;;;;;;;;5083020;28;20067;-78
2023/03/17 11:23:36;;;;;;;5.40;3.60;;;;;;;;;;5082533;28;20032;-76
2023/03/17 11:26:07;;;;;;;6.82;3.70;;;;;;;;;;5076449;28;20021;-79
2023/03/17 11:28:39;;;;;;;7.63;4.10;;;;;;;;;;5089286;28;20024;-76
2023/03/17 11:31:14;;;;;;;5.40;3.85;;;;;;;;;;5087829;28;20858;-80
2023/03/17 11:34:00;;;;;;;16.67;9.20;;;;;;;;;;5081138;28;20396;-80
2023/03/17 11:36:32;;;;;;;19.77;12.20;;;;;;;;;;5088815;28;20028;-79
2023/03/17 11:39:16;;;;;;;6.80;4.53;;;;;;;;;;5073756;28;20072;-78
2023/03/17 11:41:45;;;;;;;6.07;3.63;;;;;;;;;;5072083;28;20044;-77
2023/03/17 11:44:17;;;;;;;7.68;3.97;;;;;;;;;;5089900;28;20031;-78
2023/03/17 11:46:47;;;;;;;7.80;4.43;;;;;;;;;;5090821;28;20491;-77
2023/03/17 11:49:19;;;;;;;5.18;3.85;;;;;;;;;;5089745;28;20484;-77
2023/03/17 11:51:55;;;;;;;6.43;4.40;;;;;;;;;;5082966;28;20501;-78
2023/03/17 11:54:23;;;;;;;8.05;3.65;;;;;;;;;;5081986;28;20441;-78
2023/03/17 11:57:00;;;;;;;8.52;4.90;;;;;;;;;;5084141;28;20515;-79
2023/03/17 11:59:41;;;;;;;8.65;4.50;;;;;;;;;;5086943;28;20035;-79
2023/03/17 12:02:10;;;;;;;5.28;4.30;;;;;;;;;;5087606;28;20468;-79
2023/03/17 12:04:42;;;;;;;11.52;4.93;;;;;;;;;;5088918;28;20435;-79
2023/03/17 12:07:19;;;;;;;9.53;4.77;;;;;;;;;;5089676;28;20512;-80
2023/03/17 12:09:48;;;;;;;6.32;4.22;;;;;;;;;;5089847;28;20477;-78
2023/03/17 12:12:15;;;;;;;8.32;4.50;;;;;;;;;;5085388;28;20737;-80
2023/03/17 12:14:45;;;;;;;9.70;4.78;;;;;;;;;;5089176;28;20031;-79
2023/03/17 12:17:11;;;;;;;8.15;4.40;;;;;;;;;;5082053;28;20907;-79
2023/03/17 12:19:47;;;;;;;8.20;4.78;;;;;;;;;;5083554;28;20152;-79
2023/03/17 12:22:20;;;;;;;9.93;4.40;;;;;;;;;;5087765;28;20060;-78
2023/03/17 12:25:12;;;;;;;7.07;4.38;;;;;;;;;;5087955;28;20036;-79
2023/03/17 12:27:44;;;;;;;10.35;4.28;;;;;;;;;;5084704;28;20146;-78
2023/03/17 12:30:17;;;;;;;6.40;4.32;;;;;;;;;;5079248;28;20036;-79
2023/03/17 12:32:46;;;;;;;8.18;4.45;;;;;;;;;;5086287;28;20029;-78
2023/03/17 12:35:33;;;;;;;8.45;4.40;;;;;;;;;;5085471;28;20177;-79
2023/03/17 12:38:01;;;;;;;7.75;4.82;;;;;;;;;;5074520;28;20024;-79
2023/03/17 12:40:34;;;;;;;9.48;5.00;;;;;;;;;;5088125;28;20035;-78
2023/03/17 12:43:19;;;;;;;6.60;4.22;;;;;;;;;;5091152;28;20354;-80
2023/03/17 12:46:07;;;;;;;8.60;4.53;;;;;;;;;;5078116;28;20039;-79
2023/03/17 12:48:51;;;;;;;10.75;4.40;;;;;;;;;;5088954;28;20050;-79
2023/03/17 12:51:36;;;;;;;6.85;4.57;;;;;;;;;;5085837;28;20077;-79
2023/03/17 12:54:02;;;;;;;9.98;4.70;;;;;;;;;;5090338;28;20028;-81
2023/03/17 12:56:30;;;;;;;5.97;4.55;;;;;;;;;;5087690;28;20024;-80
2023/03/17 12:59:07;;;;;;;8.85;5.13;;;;;;;;;;5086217;28;20032;-80
2023/03/17 13:01:37;;;;;;;8.27;4.82;;;;;;;;;;5087400;28;20037;-80
2023/03/17 13:04:12;;;;;;;8.00;4.75;;;;;;;;;;5081686;28;20029;-80
2023/03/17 13:06:41;;;;;;;11.50;4.97;;;;;;;;;;5081127;28;20032;-80
2023/03/17 13:09:41;;;;;;;23.45;5.40;;;;;;;;;;5081406;28;20464;-80
2023/03/17 13:12:27;;;;;;;11.35;5.00;;;;;;;;;;5043756;28;20043;-80
2023/03/17 13:14:53;;;;;;;14.25;5.53;;;;;;;;;;5084481;28;20062;-80
2023/03/17 13:17:24;;;;;;;9.23;5.00;;;;;;;;;;5085097;28;20036;-79
2023/03/17 13:20:03;;;;;;;9.13;4.90;;;;;;;;;;5080021;28;20052;-80
2023/03/17 13:22:55;;;;;;;16.67;10.13;;;;;;;;;;5076671;28;20024;-79
2023/03/17 13:25:33;;;;;;;7.40;5.30;;;;;;;;;;5075425;28;20044;-79
2023/03/17 13:28:11;;;;;;;7.88;4.97;;;;;;;;;;5079790;28;20229;-82
2023/03/17 13:30:37;;;;;;;8.10;5.32;;;;;;;;;;5084161;28;20036;-79
2023/03/17 13:33:10;;;;;;;8.50;5.07;;;;;;;;;;5086875;28;20055;-79
2023/03/17 13:35:47;;;;;;;7.85;5.03;;;;;;;;;;5086684;28;20074;-79
2023/03/17 13:38:31;;;;;;;10.57;5.15;;;;;;;;;;5076430;28;20028;-80
2023/03/17 13:41:06;;;;;;;6.15;5.05;;;;;;;;;;5090370;28;20040;-80
2023/03/17 13:43:44;;;;;;;8.15;4.80;;;;;;;;;;5086231;28;20370;-79
2023/03/17 13:46:29;;;;;;;11.15;5.90;;;;;;;;;;5087743;28;21565;-79
2023/03/17 13:48:56;;;;;;;7.10;4.95;;;;;;;;;;5080297;28;20095;-79
2023/03/17 13:51:26;;;;;;;8.38;4.55;;;;;;;;;;5086294;28;20032;-78
2023/03/17 13:53:54;;;;;;;11.65;5.03;;;;;;;;;;5086882;28;20104;-78
2023/03/17 13:56:39;;;;;;;8.52;4.93;;;;;;;;;;5087383;28;20732;-79
2023/03/17 13:59:06;;;;;;;10.23;5.45;;;;;;;;;;5078541;28;20020;-76
2023/03/17 14:01:51;;;;;;;10.48;5.72;;;;;;;;;;5075671;28;20036;-76
2023/03/17 14:04:19;;;;;;;10.15;5.43;;;;;;;;;;5077188;28;20028;-78
2023/03/17 14:06:46;;;;;;;10.27;5.75;;;;;;;;;;5090825;28;20468;-78
2023/03/17 14:09:31;;;;;;;9.30;6.03;;;;;;;;;;5092005;28;20099;-80
2023/03/17 14:11:58;;;;;;;9.38;5.50;;;;;;;;;;5077884;28;20031;-78
2023/03/17 14:14:35;;;;;;;8.43;5.57;;;;;;;;;;5074575;28;20032;-79
2023/03/17 14:17:09;;;;;;;9.27;5.25;;;;;;;;;;5088087;28;20063;-80
2023/03/17 14:19:40;;;;;;;13.60;8.95;;;;;;;;;;5084598;28;20047;-80
2023/03/17 14:22:29;;;;;;;8.50;5.45;;;;;;;;;;5102059;28;20029;-81
2023/03/17 14:24:58;;;;;;;12.27;5.38;;;;;;;;;;5073604;28;20051;-76
2023/03/17 14:27:25;;;;;;;7.80;5.07;;;;;;;;;;5077963;28;20063;-82
2023/03/17 14:29:55;;;;;;;10.80;5.82;;;;;;;;;;5082384;28;20032;-82
2023/03/17 14:32:23;;;;;;;10.02;5.78;;;;;;;;;;5087221;28;20089;-81
2023/03/17 14:34:57;;;;;;;10.82;5.65;;;;;;;;;;5068853;28;20048;-81
2023/03/17 14:37:23;;;;;;;9.30;5.35;;;;;;;;;;5086329;28;20134;-81
2023/03/17 14:39:57;;;;;;;9.10;5.38;;;;;;;;;;5077216;28;20464;-78
2023/03/17 14:42:27;;;;;;;14.02;6.05;;;;;;;;;;5076782;28;20484;-77
2023/03/17 14:45:07;;;;;;;10.15;5.72;;;;;;;;;;5059974;28;20438;-79
2023/03/17 14:47:39;;;;;;;12.75;5.50;;;;;;;;;;5056834;28;20537;-78
2023/03/17 14:50:11;;;;;;;11.02;5.70;;;;;;;;;;5080986;28;20028;-80
2023/03/17 14:52:39;;;;;;;11.43;5.43;;;;;;;;;;5083477;28;20043;-78